sensor_id;sensor_type;location;lat;lon;timestamp;temperature;humidity
33414;DHT22;60055;41.884;12.534;2023-03-01T00:01:29;10.20;99.90
33414;DHT22;60055;41.884;12.534;2023-03-01T00:03:55;10.00;99.90
33414;DHT22;60055;41.884;12.534;2023-03-01T00:06:22;10.00;99.90
33414;DHT22;60055;41.884;12.534;2023-03-01T00:08:47;10.10;99.90
33414;DHT22;60055;41.884;12.534;2023-03-01T00:13:45;10.10;99.90
33414;DHT22;60055;41.884;12.534;2023-03-01T00:16:16;10.10;99.90
33414;DHT22;60055;41.884;12.534;2023-03-01T00:18:42;10.10;99.90
33414;DHT22;60055;41.884;12.534;2023-03-01T00:21:08;10.10;99.90
33414;DHT22;60055;41.884;12.534;2023-03-01T00:23:35;10.00;99.90
33414;DHT22;60055;41.884;12.534;2023-03-01T00:26:01;10.10;99.90
33414;DHT22;60055;41.884;12.534;2023-03-01T00:28:27;10.10;99.90
33414;DHT22;60055;41.884;12.534;2023-03-01T00:30:52;10.00;99.90
33414;DHT22;60055;41.884;12.534;2023-03-01T00:33:18;10.30;99.90
33414;DHT22;60055;41.884;12.534;2023-03-01T00:35:45;10.40;99.90
33414;DHT22;60055;41.884;12.534;2023-03-01T00:38:11;10.20;99.90
33414;DHT22;60055;41.884;12.534;2023-03-01T00:40:39;10.20;99.90
33414;DHT22;60055;41.884;12.534;2023-03-01T00:43:05;10.30;99.90
33414;DHT22;60055;41.884;12.534;2023-03-01T00:45:32;10.60;99.90
33414;DHT22;60055;41.884;12.534;2023-03-01T00:47:58;10.50;99.90
33414;DHT22;60055;41.884;12.534;2023-03-01T00:50:23;10.30;99.90
33414;DHT22;60055;41.884;12.534;2023-03-01T00:52:53;10.20;99.90
33414;DHT22;60055;41.884;12.534;2023-03-01T00:55:20;10.20;99.90
33414;DHT22;60055;41.884;12.534;2023-03-01T00:57:47;10.20;99.90
33414;DHT22;60055;41.884;12.534;2023-03-01T01:00:13;10.20;99.90
33414;DHT22;60055;41.884;12.534;2023-03-01T01:02:39;10.10;99.90
33414;DHT22;60055;41.884;12.534;2023-03-01T01:05:05;10.20;99.90
33414;DHT22;60055;41.884;12.534;2023-03-01T01:07:31;10.20;99.90
33414;DHT22;60055;41.884;12.534;2023-03-01T01:09:57;10.20;99.90
33414;DHT22;60055;41.884;12.534;2023-03-01T01:12:22;10.30;99.90
33414;DHT22;60055;41.884;12.534;2023-03-01T01:14:48;10.30;99.90
33414;DHT22;60055;41.884;12.534;2023-03-01T01:17:14;10.20;99.90
33414;DHT22;60055;41.884;12.534;2023-03-01T01:19:39;10.30;99.90
33414;DHT22;60055;41.884;12.534;2023-03-01T01:22:05;10.30;99.90
33414;DHT22;60055;41.884;12.534;2023-03-01T01:24:31;10.40;99.90
33414;DHT22;60055;41.884;12.534;2023-03-01T01:26:56;10.40;99.90
33414;DHT22;60055;41.884;12.534;2023-03-01T01:29:22;10.40;99.90
33414;DHT22;60055;41.884;12.534;2023-03-01T01:31:48;10.50;99.90
33414;DHT22;60055;41.884;12.534;2023-03-01T01:34:17;10.40;99.90
33414;DHT22;60055;41.884;12.534;2023-03-01T01:36:44;10.40;99.90
33414;DHT22;60055;41.884;12.534;2023-03-01T01:39:12;10.30;99.90
33414;DHT22;60055;41.884;12.534;2023-03-01T01:41:42;10.30;99.90
33414;DHT22;60055;41.884;12.534;2023-03-01T01:44:24;10.40;99.90
33414;DHT22;60055;41.884;12.534;2023-03-01T01:47:00;10.50;99.90
33414;DHT22;60055;41.884;12.534;2023-03-01T01:52:26;10.60;99.90
33414;DHT22;60055;41.884;12.534;2023-03-01T01:55:11;10.60;99.90
33414;DHT22;60055;41.884;12.534;2023-03-01T01:57:45;10.50;99.90
33414;DHT22;60055;41.884;12.534;2023-03-01T02:00:17;10.40;99.90
33414;DHT22;60055;41.884;12.534;2023-03-01T02:02:45;10.40;99.90
33414;DHT22;60055;41.884;12.534;2023-03-01T02:06:01;10.40;99.90
33414;DHT22;60055;41.884;12.534;2023-03-01T02:08:13;10.30;99.90
33414;DHT22;60055;41.884;12.534;2023-03-01T02:10:40;10.10;99.90
33414;DHT22;60055;41.884;12.534;2023-03-01T02:13:07;10.10;99.90
33414;DHT22;60055;41.884;12.534;2023-03-01T02:15:34;10.10;99.90
33414;DHT22;60055;41.884;12.534;2023-03-01T02:18:01;10.10;99.90
33414;DHT22;60055;41.884;12.534;2023-03-01T02:22:56;10.10;99.90
33414;DHT22;60055;41.884;12.534;2023-03-01T02:25:29;10.00;99.90
33414;DHT22;60055;41.884;12.534;2023-03-01T02:28:10;10.10;99.90
33414;DHT22;60055;41.884;12.534;2023-03-01T02:30:37;10.10;99.90
33414;DHT22;60055;41.884;12.534;2023-03-01T02:33:24;10.10;99.90
33414;DHT22;60055;41.884;12.534;2023-03-01T02:35:50;10.10;99.90
33414;DHT22;60055;41.884;12.534;2023-03-01T02:38:17;10.00;99.90
33414;DHT22;60055;41.884;12.534;2023-03-01T02:40:43;10.00;99.90
33414;DHT22;60055;41.884;12.534;2023-03-01T02:43:10;10.10;99.90
33414;DHT22;60055;41.884;12.534;2023-03-01T02:45:49;10.00;99.90
33414;DHT22;60055;41.884;12.534;2023-03-01T02:48:16;10.00;99.90
33414;DHT22;60055;41.884;12.534;2023-03-01T02:50:52;10.10;99.90
33414;DHT22;60055;41.884;12.534;2023-03-01T02:53:39;10.00;99.90
33414;DHT22;60055;41.884;12.534;2023-03-01T02:56:07;10.00;99.90
33414;DHT22;60055;41.884;12.534;2023-03-01T02:58:41;10.10;99.90
33414;DHT22;60055;41.884;12.534;2023-03-01T03:01:14;10.10;99.90
33414;DHT22;60055;41.884;12.534;2023-03-01T03:03:41;10.10;99.90
33414;DHT22;60055;41.884;12.534;2023-03-01T03:06:08;10.00;99.90
33414;DHT22;60055;41.884;12.534;2023-03-01T03:08:33;10.00;99.90
33414;DHT22;60055;41.884;12.534;2023-03-01T03:10:59;10.00;99.90
33414;DHT22;60055;41.884;12.534;2023-03-01T03:13:28;10.00;99.90
33414;DHT22;60055;41.884;12.534;2023-03-01T03:15:57;10.00;99.90
33414;DHT22;60055;41.884;12.534;2023-03-01T03:18:24;10.10;99.90
33414;DHT22;60055;41.884;12.534;2023-03-01T03:20:53;10.10;99.90
33414;DHT22;60055;41.884;12.534;2023-03-01T03:23:20;10.10;99.90
33414;DHT22;60055;41.884;12.534;2023-03-01T03:25:49;10.10;99.90
33414;DHT22;60055;41.884;12.534;2023-03-01T03:28:15;10.10;99.90
33414;DHT22;60055;41.884;12.534;2023-03-01T03:30:42;10.00;99.90
33414;DHT22;60055;41.884;12.534;2023-03-01T03:33:11;10.00;99.90
33414;DHT22;60055;41.884;12.534;2023-03-01T03:35:46;10.10;99.90
33414;DHT22;60055;41.884;12.534;2023-03-01T03:38:14;10.10;99.90
33414;DHT22;60055;41.884;12.534;2023-03-01T03:40:46;10.10;99.90
33414;DHT22;60055;41.884;12.534;2023-03-01T03:43:20;10.10;99.90
33414;DHT22;60055;41.884;12.534;2023-03-01T03:45:47;10.10;99.90
33414;DHT22;60055;41.884;12.534;2023-03-01T03:48:13;10.20;99.90
33414;DHT22;60055;41.884;12.534;2023-03-01T03:50:40;10.30;99.90
33414;DHT22;60055;41.884;12.534;2023-03-01T03:53:11;10.30;99.90
33414;DHT22;60055;41.884;12.534;2023-03-01T03:55:37;10.40;99.90
33414;DHT22;60055;41.884;12.534;2023-03-01T03:58:06;10.30;99.90
33414;DHT22;60055;41.884;12.534;2023-03-01T04:00:37;10.20;99.90
33414;DHT22;60055;41.884;12.534;2023-03-01T04:03:03;10.20;99.90
33414;DHT22;60055;41.884;12.534;2023-03-01T04:05:29;10.40;99.90
33414;DHT22;60055;41.884;12.534;2023-03-01T04:07:55;10.40;99.90
33414;DHT22;60055;41.884;12.534;2023-03-01T04:10:32;10.40;99.90
33414;DHT22;60055;41.884;12.534;2023-03-01T04:12:58;10.30;99.90
33414;DHT22;60055;41.884;12.534;2023-03-01T04:15:25;10.30;99.90
33414;DHT22;60055;41.884;12.534;2023-03-01T04:17:53;10.30;99.90
33414;DHT22;60055;41.884;12.534;2023-03-01T04:20:23;10.30;99.90
33414;DHT22;60055;41.884;12.534;2023-03-01T04:23:06;10.20;99.90
33414;DHT22;60055;41.884;12.534;2023-03-01T04:25:42;10.30;99.90
33414;DHT22;60055;41.884;12.534;2023-03-01T04:28:10;10.20;99.90
33414;DHT22;60055;41.884;12.534;2023-03-01T04:30:40;10.30;99.90
33414;DHT22;60055;41.884;12.534;2023-03-01T04:33:08;10.20;99.90
33414;DHT22;60055;41.884;12.534;2023-03-01T04:35:35;10.20;99.90
33414;DHT22;60055;41.884;12.534;2023-03-01T04:38:01;10.10;99.90
33414;DHT22;60055;41.884;12.534;2023-03-01T04:40:30;10.20;99.90
33414;DHT22;60055;41.884;12.534;2023-03-01T04:42:55;10.20;99.90
33414;DHT22;60055;41.884;12.534;2023-03-01T04:45:21;10.00;99.90
33414;DHT22;60055;41.884;12.534;2023-03-01T04:47:48;10.00;99.90
33414;DHT22;60055;41.884;12.534;2023-03-01T04:50:16;9.90;99.90
33414;DHT22;60055;41.884;12.534;2023-03-01T04:52:44;10.10;99.90
33414;DHT22;60055;41.884;12.534;2023-03-01T04:55:13;10.10;99.90
33414;DHT22;60055;41.884;12.534;2023-03-01T04:57:39;10.00;99.90
33414;DHT22;60055;41.884;12.534;2023-03-01T05:00:07;10.00;99.90
33414;DHT22;60055;41.884;12.534;2023-03-01T05:02:53;10.00;99.90
33414;DHT22;60055;41.884;12.534;2023-03-01T05:05:34;10.00;99.90
33414;DHT22;60055;41.884;12.534;2023-03-01T05:08:03;9.90;99.90
33414;DHT22;60055;41.884;12.534;2023-03-01T05:10:30;10.00;99.90
33414;DHT22;60055;41.884;12.534;2023-03-01T05:12:58;10.00;99.90
33414;DHT22;60055;41.884;12.534;2023-03-01T05:15:28;9.90;99.90
33414;DHT22;60055;41.884;12.534;2023-03-01T05:17:56;10.00;99.90
33414;DHT22;60055;41.884;12.534;2023-03-01T05:20:24;10.10;99.90
33414;DHT22;60055;41.884;12.534;2023-03-01T05:22:51;10.00;99.90
33414;DHT22;60055;41.884;12.534;2023-03-01T05:25:18;10.00;99.90
33414;DHT22;60055;41.884;12.534;2023-03-01T05:27:44;10.10;99.90
33414;DHT22;60055;41.884;12.534;2023-03-01T05:30:10;10.10;99.90
33414;DHT22;60055;41.884;12.534;2023-03-01T05:32:44;10.10;99.90
33414;DHT22;60055;41.884;12.534;2023-03-01T05:35:12;10.00;99.90
33414;DHT22;60055;41.884;12.534;2023-03-01T05:37:48;10.00;99.90
33414;DHT22;60055;41.884;12.534;2023-03-01T05:40:23;9.90;99.90
33414;DHT22;60055;41.884;12.534;2023-03-01T05:42:54;9.90;99.90
33414;DHT22;60055;41.884;12.534;2023-03-01T05:45:21;9.90;99.90
33414;DHT22;60055;41.884;12.534;2023-03-01T05:47:49;10.00;99.90
33414;DHT22;60055;41.884;12.534;2023-03-01T05:50:19;10.00;99.90
33414;DHT22;60055;41.884;12.534;2023-03-01T05:52:50;10.00;99.90
33414;DHT22;60055;41.884;12.534;2023-03-01T05:55:23;10.00;99.90
33414;DHT22;60055;41.884;12.534;2023-03-01T05:57:48;9.90;99.90
33414;DHT22;60055;41.884;12.534;2023-03-01T06:00:17;10.00;99.90
33414;DHT22;60055;41.884;12.534;2023-03-01T06:02:45;10.00;99.90
33414;DHT22;60055;41.884;12.534;2023-03-01T06:05:14;10.20;99.90
33414;DHT22;60055;41.884;12.534;2023-03-01T06:07:40;10.10;99.90
33414;DHT22;60055;41.884;12.534;2023-03-01T06:10:07;10.00;99.90
33414;DHT22;60055;41.884;12.534;2023-03-01T06:12:35;10.00;99.90
33414;DHT22;60055;41.884;12.534;2023-03-01T06:15:01;10.00;99.90
33414;DHT22;60055;41.884;12.534;2023-03-01T06:17:29;9.90;99.90
33414;DHT22;60055;41.884;12.534;2023-03-01T06:19:55;9.90;99.90
33414;DHT22;60055;41.884;12.534;2023-03-01T06:22:21;9.90;99.90
33414;DHT22;60055;41.884;12.534;2023-03-01T06:24:47;10.00;99.90
33414;DHT22;60055;41.884;12.534;2023-03-01T06:27:12;10.00;99.90
33414;DHT22;60055;41.884;12.534;2023-03-01T06:29:38;10.20;99.90
33414;DHT22;60055;41.884;12.534;2023-03-01T06:32:04;10.30;99.90
33414;DHT22;60055;41.884;12.534;2023-03-01T06:34:30;10.30;99.90
33414;DHT22;60055;41.884;12.534;2023-03-01T06:36:56;10.50;99.90
33414;DHT22;60055;41.884;12.534;2023-03-01T06:39:21;10.50;99.90
33414;DHT22;60055;41.884;12.534;2023-03-01T06:41:47;10.40;99.90
33414;DHT22;60055;41.884;12.534;2023-03-01T06:44:15;10.40;99.90
33414;DHT22;60055;41.884;12.534;2023-03-01T06:46:43;10.30;99.90
33414;DHT22;60055;41.884;12.534;2023-03-01T06:49:09;10.50;99.90
33414;DHT22;60055;41.884;12.534;2023-03-01T06:51:36;10.50;99.90
33414;DHT22;60055;41.884;12.534;2023-03-01T06:54:03;10.40;99.90
33414;DHT22;60055;41.884;12.534;2023-03-01T06:56:29;10.40;99.90
33414;DHT22;60055;41.884;12.534;2023-03-01T06:58:57;10.40;99.90
33414;DHT22;60055;41.884;12.534;2023-03-01T07:01:23;10.50;99.90
33414;DHT22;60055;41.884;12.534;2023-03-01T07:03:51;10.30;99.90
33414;DHT22;60055;41.884;12.534;2023-03-01T07:06:17;10.30;99.90
33414;DHT22;60055;41.884;12.534;2023-03-01T07:08:45;10.30;99.90
33414;DHT22;60055;41.884;12.534;2023-03-01T07:11:10;10.40;99.90
33414;DHT22;60055;41.884;12.534;2023-03-01T07:13:36;10.40;99.90
33414;DHT22;60055;41.884;12.534;2023-03-01T07:16:01;10.40;99.90
33414;DHT22;60055;41.884;12.534;2023-03-01T07:18:27;10.70;99.90
33414;DHT22;60055;41.884;12.534;2023-03-01T07:20:53;10.70;99.90
33414;DHT22;60055;41.884;12.534;2023-03-01T07:23:19;10.80;99.90
33414;DHT22;60055;41.884;12.534;2023-03-01T07:25:44;10.90;99.90
33414;DHT22;60055;41.884;12.534;2023-03-01T07:28:16;10.70;99.90
33414;DHT22;60055;41.884;12.534;2023-03-01T07:30:41;10.60;99.90
33414;DHT22;60055;41.884;12.534;2023-03-01T07:33:07;10.70;99.90
33414;DHT22;60055;41.884;12.534;2023-03-01T07:35:33;10.70;99.90
33414;DHT22;60055;41.884;12.534;2023-03-01T07:37:59;10.70;99.90
33414;DHT22;60055;41.884;12.534;2023-03-01T07:40:24;10.70;99.90
33414;DHT22;60055;41.884;12.534;2023-03-01T07:42:55;10.70;99.90
33414;DHT22;60055;41.884;12.534;2023-03-01T07:45:21;10.70;99.90
33414;DHT22;60055;41.884;12.534;2023-03-01T07:47:47;10.70;99.90
33414;DHT22;60055;41.884;12.534;2023-03-01T07:50:13;10.70;99.90
33414;DHT22;60055;41.884;12.534;2023-03-01T07:52:39;10.60;99.90
33414;DHT22;60055;41.884;12.534;2023-03-01T07:55:05;10.80;99.90
33414;DHT22;60055;41.884;12.534;2023-03-01T07:57:30;10.80;99.90
33414;DHT22;60055;41.884;12.534;2023-03-01T07:59:56;10.90;99.90
33414;DHT22;60055;41.884;12.534;2023-03-01T08:02:22;10.90;99.90
33414;DHT22;60055;41.884;12.534;2023-03-01T08:04:48;10.90;99.90
33414;DHT22;60055;41.884;12.534;2023-03-01T08:07:14;10.90;99.90
33414;DHT22;60055;41.884;12.534;2023-03-01T08:09:41;10.90;99.90
33414;DHT22;60055;41.884;12.534;2023-03-01T08:12:09;11.00;99.90
33414;DHT22;60055;41.884;12.534;2023-03-01T08:14:35;10.90;99.90
33414;DHT22;60055;41.884;12.534;2023-03-01T08:17:01;10.90;99.90
33414;DHT22;60055;41.884;12.534;2023-03-01T08:19:29;10.90;99.90
33414;DHT22;60055;41.884;12.534;2023-03-01T08:21:55;11.00;99.90
33414;DHT22;60055;41.884;12.534;2023-03-01T08:24:23;11.00;99.90
33414;DHT22;60055;41.884;12.534;2023-03-01T08:26:49;11.10;99.90
33414;DHT22;60055;41.884;12.534;2023-03-01T08:29:15;11.30;99.90
33414;DHT22;60055;41.884;12.534;2023-03-01T08:31:41;11.50;99.90
33414;DHT22;60055;41.884;12.534;2023-03-01T08:34:13;11.60;99.90
33414;DHT22;60055;41.884;12.534;2023-03-01T08:36:42;11.90;99.90
33414;DHT22;60055;41.884;12.534;2023-03-01T08:39:09;11.80;99.90
33414;DHT22;60055;41.884;12.534;2023-03-01T08:41:35;11.70;99.90
33414;DHT22;60055;41.884;12.534;2023-03-01T08:44:02;11.70;99.90
33414;DHT22;60055;41.884;12.534;2023-03-01T08:46:29;11.70;99.90
33414;DHT22;60055;41.884;12.534;2023-03-01T08:48:55;11.60;99.90
33414;DHT22;60055;41.884;12.534;2023-03-01T08:51:21;11.60;99.90
33414;DHT22;60055;41.884;12.534;2023-03-01T08:53:48;11.70;99.90
33414;DHT22;60055;41.884;12.534;2023-03-01T08:56:14;11.70;99.90
33414;DHT22;60055;41.884;12.534;2023-03-01T08:58:43;11.70;99.90
33414;DHT22;60055;41.884;12.534;2023-03-01T09:01:15;11.50;99.90
33414;DHT22;60055;41.884;12.534;2023-03-01T09:03:43;11.60;99.90
33414;DHT22;60055;41.884;12.534;2023-03-01T09:06:09;11.60;99.90
33414;DHT22;60055;41.884;12.534;2023-03-01T09:08:40;11.50;99.90
33414;DHT22;60055;41.884;12.534;2023-03-01T09:11:07;11.50;99.90
33414;DHT22;60055;41.884;12.534;2023-03-01T09:13:34;11.50;99.90
33414;DHT22;60055;41.884;12.534;2023-03-01T09:16:01;11.60;99.90
33414;DHT22;60055;41.884;12.534;2023-03-01T09:18:27;11.70;99.90
33414;DHT22;60055;41.884;12.534;2023-03-01T09:21:00;11.70;99.90
33414;DHT22;60055;41.884;12.534;2023-03-01T09:23:25;11.80;99.90
33414;DHT22;60055;41.884;12.534;2023-03-01T09:25:52;11.80;99.90
33414;DHT22;60055;41.884;12.534;2023-03-01T09:28:18;11.90;99.90
33414;DHT22;60055;41.884;12.534;2023-03-01T09:30:43;11.90;99.90
33414;DHT22;60055;41.884;12.534;2023-03-01T09:33:09;12.00;99.90
33414;DHT22;60055;41.884;12.534;2023-03-01T09:35:40;12.20;99.90
33414;DHT22;60055;41.884;12.534;2023-03-01T09:38:13;12.30;99.90
33414;DHT22;60055;41.884;12.534;2023-03-01T09:40:44;12.30;99.90
33414;DHT22;60055;41.884;12.534;2023-03-01T09:43:20;12.30;99.90
33414;DHT22;60055;41.884;12.534;2023-03-01T09:45:48;12.10;99.90
33414;DHT22;60055;41.884;12.534;2023-03-01T09:48:19;12.00;99.90
33414;DHT22;60055;41.884;12.534;2023-03-01T09:50:47;11.90;99.90
33414;DHT22;60055;41.884;12.534;2023-03-01T09:53:17;12.10;99.90
33414;DHT22;60055;41.884;12.534;2023-03-01T09:58:34;12.50;99.90
33414;DHT22;60055;41.884;12.534;2023-03-01T10:04:28;12.50;99.90
33414;DHT22;60055;41.884;12.534;2023-03-01T10:09:25;12.60;99.90
33414;DHT22;60055;41.884;12.534;2023-03-01T10:11:54;12.90;99.90
33414;DHT22;60055;41.884;12.534;2023-03-01T10:14:40;12.90;99.90
33414;DHT22;60055;41.884;12.534;2023-03-01T10:17:24;13.20;99.90
33414;DHT22;60055;41.884;12.534;2023-03-01T10:19:51;12.60;99.90
33414;DHT22;60055;41.884;12.534;2023-03-01T10:22:21;12.60;99.90
33414;DHT22;60055;41.884;12.534;2023-03-01T10:24:48;12.80;99.90
33414;DHT22;60055;41.884;12.534;2023-03-01T10:27:26;12.80;99.90
33414;DHT22;60055;41.884;12.534;2023-03-01T10:30:17;12.80;99.90
33414;DHT22;60055;41.884;12.534;2023-03-01T10:32:47;12.80;99.90
33414;DHT22;60055;41.884;12.534;2023-03-01T10:35:22;12.70;99.90
33414;DHT22;60055;41.884;12.534;2023-03-01T10:38:06;12.80;99.90
33414;DHT22;60055;41.884;12.534;2023-03-01T10:40:32;12.60;99.90
33414;DHT22;60055;41.884;12.534;2023-03-01T10:43:03;12.40;99.90
33414;DHT22;60055;41.884;12.534;2023-03-01T10:45:34;12.30;99.90
33414;DHT22;60055;41.884;12.534;2023-03-01T10:50:30;12.60;99.90
33414;DHT22;60055;41.884;12.534;2023-03-01T10:53:02;12.70;99.90
33414;DHT22;60055;41.884;12.534;2023-03-01T10:55:36;12.80;99.90
33414;DHT22;60055;41.884;12.534;2023-03-01T10:58:29;13.00;99.90
33414;DHT22;60055;41.884;12.534;2023-03-01T11:01:00;12.90;99.90
33414;DHT22;60055;41.884;12.534;2023-03-01T11:03:32;13.00;99.90
33414;DHT22;60055;41.884;12.534;2023-03-01T11:08:49;12.90;99.90
33414;DHT22;60055;41.884;12.534;2023-03-01T11:11:29;12.60;99.90
33414;DHT22;60055;41.884;12.534;2023-03-01T11:13:59;12.50;99.90
33414;DHT22;60055;41.884;12.534;2023-03-01T11:16:26;12.60;99.90
33414;DHT22;60055;41.884;12.534;2023-03-01T11:18:57;12.60;99.90
33414;DHT22;60055;41.884;12.534;2023-03-01T11:21:29;12.70;99.90
33414;DHT22;60055;41.884;12.534;2023-03-01T11:23:59;12.80;99.90
33414;DHT22;60055;41.884;12.534;2023-03-01T11:26:27;13.00;99.90
33414;DHT22;60055;41.884;12.534;2023-03-01T11:28:56;13.10;99.90
33414;DHT22;60055;41.884;12.534;2023-03-01T11:31:24;13.20;99.90
33414;DHT22;60055;41.884;12.534;2023-03-01T11:33:57;13.40;99.90
33414;DHT22;60055;41.884;12.534;2023-03-01T11:39:41;13.20;99.90
33414;DHT22;60055;41.884;12.534;2023-03-01T11:42:59;13.20;99.90
33414;DHT22;60055;41.884;12.534;2023-03-01T11:45:00;13.10;99.90
33414;DHT22;60055;41.884;12.534;2023-03-01T11:50:28;13.00;99.90
33414;DHT22;60055;41.884;12.534;2023-03-01T11:56:03;13.00;99.90
33414;DHT22;60055;41.884;12.534;2023-03-01T11:58:41;13.00;99.90
33414;DHT22;60055;41.884;12.534;2023-03-01T12:06:52;12.80;99.90
33414;DHT22;60055;41.884;12.534;2023-03-01T12:10:13;13.20;99.90
33414;DHT22;60055;41.884;12.534;2023-03-01T12:12:36;13.70;99.90
33414;DHT22;60055;41.884;12.534;2023-03-01T12:24:10;13.90;99.90
33414;DHT22;60055;41.884;12.534;2023-03-01T12:27:07;13.90;99.90
33414;DHT22;60055;41.884;12.534;2023-03-01T12:29:50;14.00;99.90
33414;DHT22;60055;41.884;12.534;2023-03-01T12:35:31;14.00;99.90
33414;DHT22;60055;41.884;12.534;2023-03-01T12:46:03;14.50;99.90
33414;DHT22;60055;41.884;12.534;2023-03-01T12:48:46;14.50;99.90
33414;DHT22;60055;41.884;12.534;2023-03-01T12:51:20;14.20;99.90
33414;DHT22;60055;41.884;12.534;2023-03-01T12:53:51;14.10;99.90
33414;DHT22;60055;41.884;12.534;2023-03-01T12:56:24;14.00;99.90
33414;DHT22;60055;41.884;12.534;2023-03-01T13:04:36;13.90;99.90
33414;DHT22;60055;41.884;12.534;2023-03-01T13:09:51;13.90;99.90
33414;DHT22;60055;41.884;12.534;2023-03-01T13:15:26;13.90;99.90
33414;DHT22;60055;41.884;12.534;2023-03-01T13:17:57;13.70;99.90
33414;DHT22;60055;41.884;12.534;2023-03-01T13:20:47;13.70;99.90
33414;DHT22;60055;41.884;12.534;2023-03-01T13:26:13;13.80;99.90
33414;DHT22;60055;41.884;12.534;2023-03-01T13:38:56;13.50;99.90
33414;DHT22;60055;41.884;12.534;2023-03-01T13:46:47;13.70;99.90
33414;DHT22;60055;41.884;12.534;2023-03-01T13:49:20;14.20;99.90
33414;DHT22;60055;41.884;12.534;2023-03-01T13:51:50;14.30;99.90
33414;DHT22;60055;41.884;12.534;2023-03-01T13:54:32;14.60;99.90
33414;DHT22;60055;41.884;12.534;2023-03-01T13:56:59;14.80;99.90
33414;DHT22;60055;41.884;12.534;2023-03-01T13:59:26;14.70;99.90
33414;DHT22;60055;41.884;12.534;2023-03-01T14:01:58;14.50;99.90
33414;DHT22;60055;41.884;12.534;2023-03-01T14:04:28;14.30;99.90
33414;DHT22;60055;41.884;12.534;2023-03-01T14:07:19;14.10;99.90
33414;DHT22;60055;41.884;12.534;2023-03-01T14:09:48;13.90;99.90
33414;DHT22;60055;41.884;12.534;2023-03-01T14:15:35;13.80;99.90
33414;DHT22;60055;41.884;12.534;2023-03-01T14:18:24;13.80;99.90
33414;DHT22;60055;41.884;12.534;2023-03-01T14:20:52;14.00;99.90
33414;DHT22;60055;41.884;12.534;2023-03-01T14:23:21;14.10;99.90
33414;DHT22;60055;41.884;12.534;2023-03-01T14:25:50;14.10;99.90
33414;DHT22;60055;41.884;12.534;2023-03-01T14:28:42;14.00;99.90
33414;DHT22;60055;41.884;12.534;2023-03-01T14:31:31;14.20;99.90
33414;DHT22;60055;41.884;12.534;2023-03-01T14:33:58;14.00;99.90
33414;DHT22;60055;41.884;12.534;2023-03-01T14:36:28;14.00;99.90
33414;DHT22;60055;41.884;12.534;2023-03-01T14:38:54;14.10;99.90
33414;DHT22;60055;41.884;12.534;2023-03-01T14:41:25;14.20;99.90
33414;DHT22;60055;41.884;12.534;2023-03-01T14:43:57;14.20;99.90
33414;DHT22;60055;41.884;12.534;2023-03-01T14:46:43;14.00;99.90
33414;DHT22;60055;41.884;12.534;2023-03-01T14:49:27;14.00;99.90
33414;DHT22;60055;41.884;12.534;2023-03-01T14:52:07;13.90;99.90
33414;DHT22;60055;41.884;12.534;2023-03-01T14:57:05;13.90;99.90
33414;DHT22;60055;41.884;12.534;2023-03-01T14:59:33;13.80;99.90
33414;DHT22;60055;41.884;12.534;2023-03-01T15:02:00;13.80;99.90
33414;DHT22;60055;41.884;12.534;2023-03-01T15:04:28;13.70;99.90
33414;DHT22;60055;41.884;12.534;2023-03-01T15:06:55;13.70;99.90
33414;DHT22;60055;41.884;12.534;2023-03-01T15:09:27;13.60;99.90
33414;DHT22;60055;41.884;12.534;2023-03-01T15:11:54;13.60;99.90
33414;DHT22;60055;41.884;12.534;2023-03-01T15:14:45;13.60;99.90
33414;DHT22;60055;41.884;12.534;2023-03-01T15:17:34;13.50;99.90
33414;DHT22;60055;41.884;12.534;2023-03-01T15:20:02;13.50;99.90
33414;DHT22;60055;41.884;12.534;2023-03-01T15:22:29;13.50;99.90
33414;DHT22;60055;41.884;12.534;2023-03-01T15:24:55;13.40;99.90
33414;DHT22;60055;41.884;12.534;2023-03-01T15:27:23;13.30;99.90
33414;DHT22;60055;41.884;12.534;2023-03-01T15:29:59;13.40;99.90
33414;DHT22;60055;41.884;12.534;2023-03-01T15:32:33;13.50;99.90
33414;DHT22;60055;41.884;12.534;2023-03-01T15:35:00;13.30;99.90
33414;DHT22;60055;41.884;12.534;2023-03-01T15:42:50;13.40;99.90
33414;DHT22;60055;41.884;12.534;2023-03-01T15:47:47;13.50;99.90
33414;DHT22;60055;41.884;12.534;2023-03-01T15:50:34;13.50;99.90
33414;DHT22;60055;41.884;12.534;2023-03-01T15:53:04;13.40;99.90
33414;DHT22;60055;41.884;12.534;2023-03-01T15:55:32;13.30;99.90
33414;DHT22;60055;41.884;12.534;2023-03-01T15:58:15;13.30;99.90
33414;DHT22;60055;41.884;12.534;2023-03-01T16:00:41;13.40;99.90
33414;DHT22;60055;41.884;12.534;2023-03-01T16:03:10;13.40;99.90
33414;DHT22;60055;41.884;12.534;2023-03-01T16:05:37;13.40;99.90
33414;DHT22;60055;41.884;12.534;2023-03-01T16:08:04;13.30;99.90
33414;DHT22;60055;41.884;12.534;2023-03-01T16:10:37;13.20;99.90
33414;DHT22;60055;41.884;12.534;2023-03-01T16:13:02;13.20;99.90
33414;DHT22;60055;41.884;12.534;2023-03-01T16:15:31;13.10;99.90
33414;DHT22;60055;41.884;12.534;2023-03-01T16:17:57;13.20;99.90
33414;DHT22;60055;41.884;12.534;2023-03-01T16:20:26;13.20;99.90
33414;DHT22;60055;41.884;12.534;2023-03-01T16:22:52;13.10;99.90
33414;DHT22;60055;41.884;12.534;2023-03-01T16:25:19;13.20;99.90
33414;DHT22;60055;41.884;12.534;2023-03-01T16:27:47;13.30;99.90
33414;DHT22;60055;41.884;12.534;2023-03-01T16:30:15;13.20;99.90
33414;DHT22;60055;41.884;12.534;2023-03-01T16:32:42;13.10;99.90
33414;DHT22;60055;41.884;12.534;2023-03-01T16:35:10;13.00;99.90
33414;DHT22;60055;41.884;12.534;2023-03-01T16:37:36;13.00;99.90
33414;DHT22;60055;41.884;12.534;2023-03-01T16:40:04;13.20;99.90
33414;DHT22;60055;41.884;12.534;2023-03-01T16:42:34;13.10;99.90
33414;DHT22;60055;41.884;12.534;2023-03-01T16:45:00;13.10;99.90
33414;DHT22;60055;41.884;12.534;2023-03-01T16:47:27;12.90;99.90
33414;DHT22;60055;41.884;12.534;2023-03-01T16:49:53;13.00;99.90
33414;DHT22;60055;41.884;12.534;2023-03-01T16:52:20;12.90;99.90
33414;DHT22;60055;41.884;12.534;2023-03-01T16:54:46;13.00;99.90
33414;DHT22;60055;41.884;12.534;2023-03-01T16:57:12;12.90;99.90
33414;DHT22;60055;41.884;12.534;2023-03-01T16:59:38;12.90;99.90
33414;DHT22;60055;41.884;12.534;2023-03-01T17:02:04;12.90;99.90
33414;DHT22;60055;41.884;12.534;2023-03-01T17:04:31;12.90;99.90
33414;DHT22;60055;41.884;12.534;2023-03-01T17:06:57;13.10;99.90
33414;DHT22;60055;41.884;12.534;2023-03-01T17:09:22;13.10;99.90
33414;DHT22;60055;41.884;12.534;2023-03-01T17:11:48;12.80;99.90
33414;DHT22;60055;41.884;12.534;2023-03-01T17:14:15;12.80;99.90